Flight Track Log - Related Links

Times and Time Zones

All times are in EDT time to prevent confusion due to time zone crossing. See the N789CA flight status page for this flight to view local times or setup timezone preferences in your user account.

Time Position Orientation Groundspeed Altitude Reporting Facility
EDT Latitude Longitude Course Direction KTS MPH feet Rate Location/Type
Sat 02:18:42 PM 42.3419 -76.4403 135° Southeast 352 405 5,300  Level New York Center
Sat 02:19:39 PM 42.2614 -76.4222 171° South 285 328 6,900 1,271 Climbing New York Center
Sat 02:20:40 PM 42.2314 -76.3525 120° Southeast 249 287 7,800 650 Climbing New York Center
Sat 02:21:39 PM 42.2303 -76.2431 91° East 229 264 8,200 2,622 Climbing New York Center
Sat 02:22:39 PM 42.2019 -76.1372 110° East 261 300 13,000 1,973 Climbing New York Center
Sat 02:24:00 PM 42.1810 -75.8303 135° Southeast  Level FlightAware Approximate
Sat 02:24:05 PM 42.1489 -75.9756 114° Southeast 311 358 13,000  Level Boston Center
Sat 02:25:06 PM 42.1042 -75.8478 115° Southeast 363 418 13,000  Level Boston Center
Sat 02:26:08 PM 42.0581 -75.7181 116° Southeast 375 432 13,000  Level Boston Center
Sat 02:27:10 PM 42.0150 -75.5892 114° Southeast 380 437 13,000  Level Boston Center
Sat 02:28:11 PM 41.9733 -75.4625 114° Southeast 373 429 13,000  Level Boston Center
Sat 02:29:13 PM 41.9319 -75.3356 114° Southeast 369 425 13,000  Level Boston Center
Sat 02:30:14 PM 41.9094 -75.1967 102° East 383 441 13,000  Level Boston Center
Sat 02:31:16 PM 41.9056 -75.0358 92° East 378 435 13,000  Level Boston Center
Sat 02:32:18 PM 41.8986 -74.8992 94° East 372 428 13,000 -98 Level Boston Center
Sat 02:33:19 PM 41.8892 -74.7525 95° East 369 425 12,800 -488 Descending Boston Center
Sat 02:34:21 PM 41.8822 -74.6056 94° East 391 450 12,000 -780 Descending Boston Center
Sat 02:35:22 PM 41.8719 -74.4619 95° East 387 445 11,200 -488 Descending Boston Center
Sat 02:36:24 PM 41.8264 -74.3219 114° Southeast 381 438 11,000 -97 Descending Boston Center
Sat 02:37:26 PM 41.7864 -74.1989 114° Southeast 367 422 11,000  Level Boston Center
Sat 02:38:27 PM 41.7469 -74.0747 113° Southeast 364 419 11,000 -537 Level Boston Center
Sat 02:39:29 PM 41.6728 -73.9886 139° Southeast 325 374 9,900 -1,268 Descending Boston Center
Sat 02:40:30 PM 41.5919 -73.9650 168° South 297 342 8,400 -1,463 Descending Boston Center
Sat 02:41:32 PM 41.5181 -73.9267 159° South 287 330 6,900 -893 Descending Boston Center
Sat 02:43:18 PM 41.3833 -73.8833 166° South 255 293 5,900 -1,006 Descending New York TRACON
Sat 02:44:19 PM 41.3333 -73.8833 180° South 206 237 4,100 -1,550 Descending New York TRACON
Sat 02:45:18 PM 41.2833 -73.8667 166° South 198 228 2,800 -756 Descending New York TRACON
Sat 02:46:18 PM 41.2333 -73.8333 153° Southeast 200 230 2,600 -250 Descending New York TRACON
Sat 02:47:18 PM 41.1833 -73.8000 153° Southeast 200 230 2,300 -313 Descending New York TRACON
Sat 02:48:13 PM 41.1333 -73.7667 153° Southeast 180 207 2,000 -327 Descending New York TRACON
Sat 02:50:00 PM 41.0831 -73.6506 246° West  Level FlightAware Approximate

Login

Don't have an account? Register now (free) for customized features, flight alerts, and more!